Terminal Aerodrome Forecast
Issued by NWS Omaha/Valley, NE

Home | Current Version | Previous Version | Text Only | Print | Product List | Glossary On
Versions: 1 2 3 4 5 6 7 8 9 10 11 12 13 14 15
000
FTUS43 KOAX 220550
TAFLNK
TAF
KLNK 220550Z 2206/2306 02014KT 4SM RA BR OVC005
     FM220900 02014G23KT 4SM BR OVC003
      TEMPO 2209/2210 2SM RA BR
     FM221000 01015G24KT 3SM BR VCSH OVC003
      TEMPO 2210/2212 1SM RASN BR
     FM221200 35020G28KT P6SM OVC003
      TEMPO 2212/2215 3/4SM -SN
     FM221500 34023G32KT 3/4SM -SN BLSN OVC003
     FM221800 34028G41KT 1/2SM SN BLSN OVC008
     FM222100 34026G36KT 1/2SM BLSN OVC010 PROB30 2221/2224 3/4SM
      -SN OVC003
     FM230100 33016G30KT P6SM BKN015=

USA.gov is the U.S. government's official web portal to all federal, state and local government web resources and services.